sensor_id;sensor_type;location;lat;lon;timestamp;P1;durP1;ratioP1;P2;durP2;ratioP2
58752;SDS011;44525;46.052;13.610;2022-12-24T00:00:11;47.65;;;25.20;;
58752;SDS011;44525;46.052;13.610;2022-12-24T00:02:36;48.15;;;24.58;;
58752;SDS011;44525;46.052;13.610;2022-12-24T00:05:02;54.17;;;25.67;;
58752;SDS011;44525;46.052;13.610;2022-12-24T00:07:28;51.85;;;25.20;;
58752;SDS011;44525;46.052;13.610;2022-12-24T00:09:53;50.95;;;27.00;;
58752;SDS011;44525;46.052;13.610;2022-12-24T00:12:19;51.00;;;26.73;;
58752;SDS011;44525;46.052;13.610;2022-12-24T00:14:44;55.13;;;26.30;;
58752;SDS011;44525;46.052;13.610;2022-12-24T00:17:10;52.50;;;24.70;;
58752;SDS011;44525;46.052;13.610;2022-12-24T00:19:35;50.13;;;25.80;;
58752;SDS011;44525;46.052;13.610;2022-12-24T00:22:00;45.78;;;24.08;;
58752;SDS011;44525;46.052;13.610;2022-12-24T00:24:25;49.90;;;24.38;;
58752;SDS011;44525;46.052;13.610;2022-12-24T00:26:51;45.60;;;23.23;;
58752;SDS011;44525;46.052;13.610;2022-12-24T00:29:16;45.25;;;23.95;;
58752;SDS011;44525;46.052;13.610;2022-12-24T00:31:41;45.05;;;24.15;;
58752;SDS011;44525;46.052;13.610;2022-12-24T00:34:07;46.83;;;24.02;;
58752;SDS011;44525;46.052;13.610;2022-12-24T00:36:32;49.83;;;23.63;;
58752;SDS011;44525;46.052;13.610;2022-12-24T00:38:58;57.10;;;24.17;;
58752;SDS011;44525;46.052;13.610;2022-12-24T00:41:23;49.85;;;23.85;;
58752;SDS011;44525;46.052;13.610;2022-12-24T00:44:07;43.15;;;21.90;;
58752;SDS011;44525;46.052;13.610;2022-12-24T00:46:36;51.33;;;25.63;;
58752;SDS011;44525;46.052;13.610;2022-12-24T00:49:03;52.63;;;24.70;;
58752;SDS011;44525;46.052;13.610;2022-12-24T00:51:30;50.88;;;26.38;;
58752;SDS011;44525;46.052;13.610;2022-12-24T00:53:55;52.83;;;26.27;;
58752;SDS011;44525;46.052;13.610;2022-12-24T00:56:21;53.60;;;24.60;;
58752;SDS011;44525;46.052;13.610;2022-12-24T00:58:46;49.88;;;24.77;;
58752;SDS011;44525;46.052;13.610;2022-12-24T01:01:12;50.00;;;23.33;;
58752;SDS011;44525;46.052;13.610;2022-12-24T01:03:38;45.45;;;22.50;;
58752;SDS011;44525;46.052;13.610;2022-12-24T01:06:04;45.72;;;24.35;;
58752;SDS011;44525;46.052;13.610;2022-12-24T01:08:32;47.53;;;23.42;;
58752;SDS011;44525;46.052;13.610;2022-12-24T01:10:58;49.35;;;24.08;;
58752;SDS011;44525;46.052;13.610;2022-12-24T01:13:24;43.90;;;23.33;;
58752;SDS011;44525;46.052;13.610;2022-12-24T01:15:49;44.55;;;22.25;;
58752;SDS011;44525;46.052;13.610;2022-12-24T01:18:15;50.67;;;25.52;;
58752;SDS011;44525;46.052;13.610;2022-12-24T01:20:40;49.97;;;24.23;;
58752;SDS011;44525;46.052;13.610;2022-12-24T01:23:06;53.53;;;24.52;;
58752;SDS011;44525;46.052;13.610;2022-12-24T01:25:32;55.03;;;25.15;;
58752;SDS011;44525;46.052;13.610;2022-12-24T01:27:57;57.75;;;24.00;;
58752;SDS011;44525;46.052;13.610;2022-12-24T01:30:22;50.20;;;24.92;;
58752;SDS011;44525;46.052;13.610;2022-12-24T01:32:48;47.65;;;23.38;;
58752;SDS011;44525;46.052;13.610;2022-12-24T01:35:13;55.67;;;26.48;;
58752;SDS011;44525;46.052;13.610;2022-12-24T01:37:38;47.40;;;23.65;;
58752;SDS011;44525;46.052;13.610;2022-12-24T01:40:06;55.92;;;25.65;;
58752;SDS011;44525;46.052;13.610;2022-12-24T01:42:57;49.63;;;25.50;;
58752;SDS011;44525;46.052;13.610;2022-12-24T01:45:46;55.88;;;27.58;;
58752;SDS011;44525;46.052;13.610;2022-12-24T01:51:04;52.33;;;25.20;;
58752;SDS011;44525;46.052;13.610;2022-12-24T01:53:41;52.47;;;25.58;;
58752;SDS011;44525;46.052;13.610;2022-12-24T01:56:09;47.30;;;24.58;;
58752;SDS011;44525;46.052;13.610;2022-12-24T01:58:36;49.35;;;22.95;;
58752;SDS011;44525;46.052;13.610;2022-12-24T02:01:04;51.42;;;23.85;;
58752;SDS011;44525;46.052;13.610;2022-12-24T02:03:30;48.13;;;24.02;;
58752;SDS011;44525;46.052;13.610;2022-12-24T02:05:56;48.83;;;24.33;;
58752;SDS011;44525;46.052;13.610;2022-12-24T02:08:23;46.45;;;23.55;;
58752;SDS011;44525;46.052;13.610;2022-12-24T02:10:48;44.95;;;22.27;;
58752;SDS011;44525;46.052;13.610;2022-12-24T02:13:15;44.35;;;21.95;;
58752;SDS011;44525;46.052;13.610;2022-12-24T02:18:22;43.08;;;21.10;;
58752;SDS011;44525;46.052;13.610;2022-12-24T02:29:27;45.15;;;22.30;;
58752;SDS011;44525;46.052;13.610;2022-12-24T02:32:22;48.00;;;22.30;;
58752;SDS011;44525;46.052;13.610;2022-12-24T02:35:01;42.80;;;21.25;;
58752;SDS011;44525;46.052;13.610;2022-12-24T02:37:34;42.80;;;20.80;;
58752;SDS011;44525;46.052;13.610;2022-12-24T02:42:41;43.63;;;20.95;;
58752;SDS011;44525;46.052;13.610;2022-12-24T02:45:12;42.78;;;21.05;;
58752;SDS011;44525;46.052;13.610;2022-12-24T02:47:41;40.83;;;19.38;;
58752;SDS011;44525;46.052;13.610;2022-12-24T02:50:10;38.67;;;17.92;;
58752;SDS011;44525;46.052;13.610;2022-12-24T02:52:42;36.97;;;19.33;;
58752;SDS011;44525;46.052;13.610;2022-12-24T03:03:31;33.88;;;18.08;;
58752;SDS011;44525;46.052;13.610;2022-12-24T03:09:19;47.63;;;18.40;;
58752;SDS011;44525;46.052;13.610;2022-12-24T03:11:50;31.65;;;17.55;;
58752;SDS011;44525;46.052;13.610;2022-12-24T03:14:21;44.77;;;20.17;;
58752;SDS011;44525;46.052;13.610;2022-12-24T03:16:47;34.97;;;18.77;;
58752;SDS011;44525;46.052;13.610;2022-12-24T03:19:14;43.42;;;21.23;;
58752;SDS011;44525;46.052;13.610;2022-12-24T03:21:44;40.30;;;20.20;;
58752;SDS011;44525;46.052;13.610;2022-12-24T03:24:11;37.22;;;20.33;;
58752;SDS011;44525;46.052;13.610;2022-12-24T03:26:36;37.90;;;19.50;;
58752;SDS011;44525;46.052;13.610;2022-12-24T03:29:03;41.38;;;18.95;;
58752;SDS011;44525;46.052;13.610;2022-12-24T03:31:44;37.08;;;18.05;;
58752;SDS011;44525;46.052;13.610;2022-12-24T03:34:12;40.63;;;18.55;;
58752;SDS011;44525;46.052;13.610;2022-12-24T03:36:39;38.45;;;18.85;;
58752;SDS011;44525;46.052;13.610;2022-12-24T03:39:04;41.58;;;20.40;;
58752;SDS011;44525;46.052;13.610;2022-12-24T03:41:30;39.20;;;17.83;;
58752;SDS011;44525;46.052;13.610;2022-12-24T03:43:56;41.55;;;18.25;;
58752;SDS011;44525;46.052;13.610;2022-12-24T03:46:21;35.60;;;16.45;;
58752;SDS011;44525;46.052;13.610;2022-12-24T03:48:47;34.80;;;16.55;;
58752;SDS011;44525;46.052;13.610;2022-12-24T03:51:19;41.33;;;19.42;;
58752;SDS011;44525;46.052;13.610;2022-12-24T03:53:46;35.35;;;18.08;;
58752;SDS011;44525;46.052;13.610;2022-12-24T03:56:11;38.67;;;18.42;;
58752;SDS011;44525;46.052;13.610;2022-12-24T03:58:37;41.45;;;19.45;;
58752;SDS011;44525;46.052;13.610;2022-12-24T04:01:02;37.42;;;19.10;;
58752;SDS011;44525;46.052;13.610;2022-12-24T04:03:28;36.85;;;18.25;;
58752;SDS011;44525;46.052;13.610;2022-12-24T04:06:00;40.20;;;18.60;;
58752;SDS011;44525;46.052;13.610;2022-12-24T04:08:27;37.28;;;18.73;;
58752;SDS011;44525;46.052;13.610;2022-12-24T04:10:52;40.92;;;18.35;;
58752;SDS011;44525;46.052;13.610;2022-12-24T04:13:17;39.42;;;18.60;;
58752;SDS011;44525;46.052;13.610;2022-12-24T04:15:43;42.55;;;20.98;;
58752;SDS011;44525;46.052;13.610;2022-12-24T04:18:08;38.30;;;20.25;;
58752;SDS011;44525;46.052;13.610;2022-12-24T04:20:33;41.42;;;19.25;;
58752;SDS011;44525;46.052;13.610;2022-12-24T04:22:59;43.35;;;21.17;;
58752;SDS011;44525;46.052;13.610;2022-12-24T04:25:24;42.30;;;19.30;;
58752;SDS011;44525;46.052;13.610;2022-12-24T04:27:49;40.88;;;18.92;;
58752;SDS011;44525;46.052;13.610;2022-12-24T04:30:15;45.15;;;20.02;;
58752;SDS011;44525;46.052;13.610;2022-12-24T04:32:40;40.55;;;20.33;;
58752;SDS011;44525;46.052;13.610;2022-12-24T04:35:06;40.33;;;20.52;;
58752;SDS011;44525;46.052;13.610;2022-12-24T04:37:32;38.80;;;18.60;;
58752;SDS011;44525;46.052;13.610;2022-12-24T04:39:57;36.25;;;17.92;;
58752;SDS011;44525;46.052;13.610;2022-12-24T04:42:23;38.90;;;20.55;;
58752;SDS011;44525;46.052;13.610;2022-12-24T04:44:48;56.90;;;27.58;;
58752;SDS011;44525;46.052;13.610;2022-12-24T04:47:13;45.17;;;22.90;;
58752;SDS011;44525;46.052;13.610;2022-12-24T04:49:39;41.30;;;21.15;;
58752;SDS011;44525;46.052;13.610;2022-12-24T04:52:04;43.47;;;20.63;;
58752;SDS011;44525;46.052;13.610;2022-12-24T04:54:29;43.13;;;21.42;;
58752;SDS011;44525;46.052;13.610;2022-12-24T04:56:55;38.75;;;20.13;;
58752;SDS011;44525;46.052;13.610;2022-12-24T04:59:20;39.58;;;19.35;;
58752;SDS011;44525;46.052;13.610;2022-12-24T05:01:45;40.70;;;18.95;;
58752;SDS011;44525;46.052;13.610;2022-12-24T05:04:11;38.22;;;18.55;;
58752;SDS011;44525;46.052;13.610;2022-12-24T05:06:36;39.97;;;18.77;;
58752;SDS011;44525;46.052;13.610;2022-12-24T05:09:01;42.00;;;18.77;;
58752;SDS011;44525;46.052;13.610;2022-12-24T05:11:27;34.05;;;17.33;;
58752;SDS011;44525;46.052;13.610;2022-12-24T05:13:52;42.63;;;19.00;;
58752;SDS011;44525;46.052;13.610;2022-12-24T05:16:19;36.88;;;19.75;;
58752;SDS011;44525;46.052;13.610;2022-12-24T05:18:45;38.50;;;19.23;;
58752;SDS011;44525;46.052;13.610;2022-12-24T05:21:18;36.55;;;17.92;;
58752;SDS011;44525;46.052;13.610;2022-12-24T05:23:45;38.35;;;18.55;;
58752;SDS011;44525;46.052;13.610;2022-12-24T05:28:57;44.92;;;22.88;;
58752;SDS011;44525;46.052;13.610;2022-12-24T05:31:24;45.42;;;23.38;;
58752;SDS011;44525;46.052;13.610;2022-12-24T05:33:51;38.80;;;21.33;;
58752;SDS011;44525;46.052;13.610;2022-12-24T05:36:21;38.97;;;20.00;;
58752;SDS011;44525;46.052;13.610;2022-12-24T05:38:47;38.40;;;20.13;;
58752;SDS011;44525;46.052;13.610;2022-12-24T05:41:13;38.10;;;19.48;;
58752;SDS011;44525;46.052;13.610;2022-12-24T05:43:38;36.58;;;17.85;;
58752;SDS011;44525;46.052;13.610;2022-12-24T05:46:05;39.60;;;21.80;;
58752;SDS011;44525;46.052;13.610;2022-12-24T05:48:33;43.03;;;22.60;;
58752;SDS011;44525;46.052;13.610;2022-12-24T05:50:59;42.72;;;21.67;;
58752;SDS011;44525;46.052;13.610;2022-12-24T05:53:27;39.63;;;19.83;;
58752;SDS011;44525;46.052;13.610;2022-12-24T05:55:52;40.88;;;20.45;;
58752;SDS011;44525;46.052;13.610;2022-12-24T05:58:18;40.28;;;20.02;;
58752;SDS011;44525;46.052;13.610;2022-12-24T06:00:43;36.00;;;18.42;;
58752;SDS011;44525;46.052;13.610;2022-12-24T06:03:08;34.15;;;17.77;;
58752;SDS011;44525;46.052;13.610;2022-12-24T06:05:34;31.27;;;17.40;;
58752;SDS011;44525;46.052;13.610;2022-12-24T06:07:59;39.58;;;20.23;;
58752;SDS011;44525;46.052;13.610;2022-12-24T06:10:24;40.28;;;21.65;;
58752;SDS011;44525;46.052;13.610;2022-12-24T06:12:50;42.17;;;20.35;;
58752;SDS011;44525;46.052;13.610;2022-12-24T06:15:18;38.28;;;19.88;;
58752;SDS011;44525;46.052;13.610;2022-12-24T06:17:43;37.42;;;20.65;;
58752;SDS011;44525;46.052;13.610;2022-12-24T06:20:08;37.33;;;21.30;;
58752;SDS011;44525;46.052;13.610;2022-12-24T06:22:34;43.10;;;23.40;;
58752;SDS011;44525;46.052;13.610;2022-12-24T06:24:59;45.17;;;23.38;;
58752;SDS011;44525;46.052;13.610;2022-12-24T06:27:25;50.35;;;26.95;;
58752;SDS011;44525;46.052;13.610;2022-12-24T06:29:50;41.65;;;22.00;;
58752;SDS011;44525;46.052;13.610;2022-12-24T06:32:15;38.78;;;21.55;;
58752;SDS011;44525;46.052;13.610;2022-12-24T06:34:40;36.00;;;19.17;;
58752;SDS011;44525;46.052;13.610;2022-12-24T06:37:06;30.90;;;16.63;;
58752;SDS011;44525;46.052;13.610;2022-12-24T06:39:31;34.45;;;17.98;;
58752;SDS011;44525;46.052;13.610;2022-12-24T06:41:56;33.58;;;17.90;;
58752;SDS011;44525;46.052;13.610;2022-12-24T06:44:22;35.08;;;18.15;;
58752;SDS011;44525;46.052;13.610;2022-12-24T06:46:47;41.55;;;21.60;;
58752;SDS011;44525;46.052;13.610;2022-12-24T06:49:13;47.75;;;26.35;;
58752;SDS011;44525;46.052;13.610;2022-12-24T06:51:38;38.88;;;19.95;;
58752;SDS011;44525;46.052;13.610;2022-12-24T06:54:03;38.30;;;21.20;;
58752;SDS011;44525;46.052;13.610;2022-12-24T06:56:29;41.08;;;20.27;;
58752;SDS011;44525;46.052;13.610;2022-12-24T06:58:54;36.47;;;19.88;;
58752;SDS011;44525;46.052;13.610;2022-12-24T07:01:19;39.60;;;23.23;;
58752;SDS011;44525;46.052;13.610;2022-12-24T07:03:45;36.58;;;20.90;;
58752;SDS011;44525;46.052;13.610;2022-12-24T07:06:44;37.17;;;20.73;;
58752;SDS011;44525;46.052;13.610;2022-12-24T07:09:03;38.55;;;20.33;;
58752;SDS011;44525;46.052;13.610;2022-12-24T07:11:28;39.05;;;20.52;;
58752;SDS011;44525;46.052;13.610;2022-12-24T07:13:53;35.58;;;19.52;;
58752;SDS011;44525;46.052;13.610;2022-12-24T07:16:19;37.58;;;20.73;;
58752;SDS011;44525;46.052;13.610;2022-12-24T07:18:45;54.92;;;29.23;;
58752;SDS011;44525;46.052;13.610;2022-12-24T07:21:10;125.07;;;63.58;;
58752;SDS011;44525;46.052;13.610;2022-12-24T07:23:36;120.93;;;59.13;;
58752;SDS011;44525;46.052;13.610;2022-12-24T07:26:02;95.95;;;51.45;;
58752;SDS011;44525;46.052;13.610;2022-12-24T07:28:29;83.15;;;42.92;;
58752;SDS011;44525;46.052;13.610;2022-12-24T07:30:55;65.22;;;36.08;;
58752;SDS011;44525;46.052;13.610;2022-12-24T07:33:22;64.03;;;34.65;;
58752;SDS011;44525;46.052;13.610;2022-12-24T07:35:48;66.22;;;35.67;;
58752;SDS011;44525;46.052;13.610;2022-12-24T07:38:13;58.83;;;29.88;;
58752;SDS011;44525;46.052;13.610;2022-12-24T07:40:38;55.95;;;32.67;;
58752;SDS011;44525;46.052;13.610;2022-12-24T07:43:04;56.63;;;33.63;;
58752;SDS011;44525;46.052;13.610;2022-12-24T07:45:29;59.45;;;33.70;;
58752;SDS011;44525;46.052;13.610;2022-12-24T07:47:54;57.05;;;33.08;;
58752;SDS011;44525;46.052;13.610;2022-12-24T07:50:20;59.63;;;30.25;;
58752;SDS011;44525;46.052;13.610;2022-12-24T07:52:45;63.40;;;35.33;;
58752;SDS011;44525;46.052;13.610;2022-12-24T07:55:10;68.43;;;36.45;;
58752;SDS011;44525;46.052;13.610;2022-12-24T07:57:36;86.40;;;43.53;;
58752;SDS011;44525;46.052;13.610;2022-12-24T08:00:02;90.47;;;47.53;;
58752;SDS011;44525;46.052;13.610;2022-12-24T08:02:27;77.30;;;40.47;;
58752;SDS011;44525;46.052;13.610;2022-12-24T08:04:53;58.53;;;33.78;;
58752;SDS011;44525;46.052;13.610;2022-12-24T08:07:18;58.10;;;30.17;;
58752;SDS011;44525;46.052;13.610;2022-12-24T08:09:43;46.05;;;23.27;;
58752;SDS011;44525;46.052;13.610;2022-12-24T08:12:10;43.05;;;24.52;;
58752;SDS011;44525;46.052;13.610;2022-12-24T08:14:35;42.72;;;25.63;;
58752;SDS011;44525;46.052;13.610;2022-12-24T08:17:00;47.70;;;28.13;;
58752;SDS011;44525;46.052;13.610;2022-12-24T08:19:26;47.67;;;26.70;;
58752;SDS011;44525;46.052;13.610;2022-12-24T08:21:51;45.10;;;25.65;;
58752;SDS011;44525;46.052;13.610;2022-12-24T08:24:16;46.20;;;23.95;;
58752;SDS011;44525;46.052;13.610;2022-12-24T08:26:42;49.35;;;25.80;;
58752;SDS011;44525;46.052;13.610;2022-12-24T08:29:07;42.88;;;24.55;;
58752;SDS011;44525;46.052;13.610;2022-12-24T08:31:33;46.75;;;25.20;;
58752;SDS011;44525;46.052;13.610;2022-12-24T08:34:04;47.83;;;23.38;;
58752;SDS011;44525;46.052;13.610;2022-12-24T08:36:31;41.15;;;23.63;;
58752;SDS011;44525;46.052;13.610;2022-12-24T08:38:58;38.45;;;18.88;;
58752;SDS011;44525;46.052;13.610;2022-12-24T08:41:23;34.38;;;18.38;;
58752;SDS011;44525;46.052;13.610;2022-12-24T08:43:48;34.63;;;19.02;;
58752;SDS011;44525;46.052;13.610;2022-12-24T08:46:14;40.20;;;20.17;;
58752;SDS011;44525;46.052;13.610;2022-12-24T08:48:39;33.30;;;19.15;;
58752;SDS011;44525;46.052;13.610;2022-12-24T08:51:05;36.10;;;19.23;;
58752;SDS011;44525;46.052;13.610;2022-12-24T08:53:35;41.90;;;22.98;;
58752;SDS011;44525;46.052;13.610;2022-12-24T08:56:02;43.35;;;22.90;;
58752;SDS011;44525;46.052;13.610;2022-12-24T08:58:29;70.07;;;38.20;;
58752;SDS011;44525;46.052;13.610;2022-12-24T09:00:56;37.60;;;20.52;;
58752;SDS011;44525;46.052;13.610;2022-12-24T09:03:21;32.53;;;18.10;;
58752;SDS011;44525;46.052;13.610;2022-12-24T09:05:46;29.55;;;16.90;;
58752;SDS011;44525;46.052;13.610;2022-12-24T09:08:12;32.95;;;19.55;;
58752;SDS011;44525;46.052;13.610;2022-12-24T09:10:37;38.28;;;19.52;;
58752;SDS011;44525;46.052;13.610;2022-12-24T09:13:03;33.08;;;19.58;;
58752;SDS011;44525;46.052;13.610;2022-12-24T09:15:28;35.28;;;18.88;;
58752;SDS011;44525;46.052;13.610;2022-12-24T09:17:53;34.92;;;20.38;;
58752;SDS011;44525;46.052;13.610;2022-12-24T09:20:19;31.77;;;17.95;;
58752;SDS011;44525;46.052;13.610;2022-12-24T09:22:44;31.40;;;18.35;;
58752;SDS011;44525;46.052;13.610;2022-12-24T09:25:09;31.10;;;18.42;;
58752;SDS011;44525;46.052;13.610;2022-12-24T09:27:35;33.92;;;18.50;;
58752;SDS011;44525;46.052;13.610;2022-12-24T09:30:01;35.40;;;20.55;;
58752;SDS011;44525;46.052;13.610;2022-12-24T09:32:26;39.60;;;24.92;;
58752;SDS011;44525;46.052;13.610;2022-12-24T09:34:52;47.67;;;28.73;;
58752;SDS011;44525;46.052;13.610;2022-12-24T09:37:18;44.33;;;27.40;;
58752;SDS011;44525;46.052;13.610;2022-12-24T09:39:43;118.10;;;63.28;;
58752;SDS011;44525;46.052;13.610;2022-12-24T09:45:10;44.75;;;26.75;;
58752;SDS011;44525;46.052;13.610;2022-12-24T09:47:38;41.58;;;24.70;;
58752;SDS011;44525;46.052;13.610;2022-12-24T09:50:53;39.13;;;23.02;;
58752;SDS011;44525;46.052;13.610;2022-12-24T09:52:56;38.65;;;20.08;;
58752;SDS011;44525;46.052;13.610;2022-12-24T09:55:29;36.17;;;19.45;;
58752;SDS011;44525;46.052;13.610;2022-12-24T09:57:58;35.00;;;19.92;;
58752;SDS011;44525;46.052;13.610;2022-12-24T10:00:27;41.28;;;20.00;;
58752;SDS011;44525;46.052;13.610;2022-12-24T10:02:55;46.35;;;23.45;;
58752;SDS011;44525;46.052;13.610;2022-12-24T10:08:07;41.78;;;24.17;;
58752;SDS011;44525;46.052;13.610;2022-12-24T10:21:49;43.58;;;24.65;;
58752;SDS011;44525;46.052;13.610;2022-12-24T10:24:27;38.90;;;20.88;;
58752;SDS011;44525;46.052;13.610;2022-12-24T10:27:11;41.40;;;24.48;;
58752;SDS011;44525;46.052;13.610;2022-12-24T10:30:03;54.78;;;24.45;;
58752;SDS011;44525;46.052;13.610;2022-12-24T10:32:29;63.35;;;35.00;;
58752;SDS011;44525;46.052;13.610;2022-12-24T10:37:45;43.83;;;24.27;;
58752;SDS011;44525;46.052;13.610;2022-12-24T10:40:23;38.38;;;19.60;;
58752;SDS011;44525;46.052;13.610;2022-12-24T10:42:58;35.25;;;21.55;;
58752;SDS011;44525;46.052;13.610;2022-12-24T10:45:24;34.80;;;20.05;;
58752;SDS011;44525;46.052;13.610;2022-12-24T10:47:56;31.30;;;17.67;;
58752;SDS011;44525;46.052;13.610;2022-12-24T10:50:30;30.20;;;17.15;;
58752;SDS011;44525;46.052;13.610;2022-12-24T10:55:46;33.80;;;18.80;;
58752;SDS011;44525;46.052;13.610;2022-12-24T10:58:14;29.23;;;17.20;;
58752;SDS011;44525;46.052;13.610;2022-12-24T11:00:44;28.00;;;16.15;;
58752;SDS011;44525;46.052;13.610;2022-12-24T11:05:43;32.17;;;20.20;;
58752;SDS011;44525;46.052;13.610;2022-12-24T11:08:18;31.60;;;18.58;;
58752;SDS011;44525;46.052;13.610;2022-12-24T11:10:54;31.48;;;18.88;;
58752;SDS011;44525;46.052;13.610;2022-12-24T11:13:26;28.95;;;16.45;;
58752;SDS011;44525;46.052;13.610;2022-12-24T11:18:45;26.80;;;15.80;;
58752;SDS011;44525;46.052;13.610;2022-12-24T11:21:18;24.13;;;13.88;;
58752;SDS011;44525;46.052;13.610;2022-12-24T11:23:49;21.55;;;10.70;;
58752;SDS011;44525;46.052;13.610;2022-12-24T11:26:20;23.92;;;13.25;;
58752;SDS011;44525;46.052;13.610;2022-12-24T11:29:02;30.40;;;16.35;;
58752;SDS011;44525;46.052;13.610;2022-12-24T11:31:29;28.65;;;17.40;;
58752;SDS011;44525;46.052;13.610;2022-12-24T11:33:56;31.45;;;17.60;;
58752;SDS011;44525;46.052;13.610;2022-12-24T11:36:22;29.95;;;16.90;;
58752;SDS011;44525;46.052;13.610;2022-12-24T11:38:53;45.03;;;29.80;;
58752;SDS011;44525;46.052;13.610;2022-12-24T11:41:21;38.10;;;26.27;;
58752;SDS011;44525;46.052;13.610;2022-12-24T11:43:48;33.60;;;25.42;;
58752;SDS011;44525;46.052;13.610;2022-12-24T11:46:20;29.45;;;22.48;;
58752;SDS011;44525;46.052;13.610;2022-12-24T11:49:03;27.83;;;22.33;;
58752;SDS011;44525;46.052;13.610;2022-12-24T11:51:35;41.83;;;26.40;;
58752;SDS011;44525;46.052;13.610;2022-12-24T11:54:14;39.92;;;25.02;;
58752;SDS011;44525;46.052;13.610;2022-12-24T11:56:44;36.80;;;21.92;;
58752;SDS011;44525;46.052;13.610;2022-12-24T12:01:57;27.13;;;15.63;;
58752;SDS011;44525;46.052;13.610;2022-12-24T12:04:41;27.55;;;14.68;;
58752;SDS011;44525;46.052;13.610;2022-12-24T12:07:20;26.20;;;14.63;;
58752;SDS011;44525;46.052;13.610;2022-12-24T12:09:50;30.98;;;19.83;;
58752;SDS011;44525;46.052;13.610;2022-12-24T12:12:40;26.15;;;15.30;;
58752;SDS011;44525;46.052;13.610;2022-12-24T12:15:11;23.33;;;15.50;;
58752;SDS011;44525;46.052;13.610;2022-12-24T12:17:47;28.98;;;15.90;;
58752;SDS011;44525;46.052;13.610;2022-12-24T12:20:30;40.35;;;23.70;;
58752;SDS011;44525;46.052;13.610;2022-12-24T12:23:09;41.67;;;23.63;;
58752;SDS011;44525;46.052;13.610;2022-12-24T12:31:18;25.23;;;15.60;;
58752;SDS011;44525;46.052;13.610;2022-12-24T12:34:10;30.42;;;18.23;;
58752;SDS011;44525;46.052;13.610;2022-12-24T12:36:44;27.98;;;16.20;;
58752;SDS011;44525;46.052;13.610;2022-12-24T12:39:14;17.95;;;11.07;;
58752;SDS011;44525;46.052;13.610;2022-12-24T12:45:21;15.25;;;9.48;;
58752;SDS011;44525;46.052;13.610;2022-12-24T12:47:47;17.27;;;10.33;;
58752;SDS011;44525;46.052;13.610;2022-12-24T12:50:27;38.45;;;23.40;;
58752;SDS011;44525;46.052;13.610;2022-12-24T12:58:32;15.02;;;10.63;;
58752;SDS011;44525;46.052;13.610;2022-12-24T13:01:22;17.27;;;10.82;;
58752;SDS011;44525;46.052;13.610;2022-12-24T13:09:59;35.60;;;20.65;;
58752;SDS011;44525;46.052;13.610;2022-12-24T13:15:47;29.20;;;16.00;;
58752;SDS011;44525;46.052;13.610;2022-12-24T13:21:16;19.67;;;12.45;;
58752;SDS011;44525;46.052;13.610;2022-12-24T13:23:46;56.70;;;32.22;;
58752;SDS011;44525;46.052;13.610;2022-12-24T13:26:12;24.02;;;13.27;;
58752;SDS011;44525;46.052;13.610;2022-12-24T13:28:39;20.10;;;11.60;;
58752;SDS011;44525;46.052;13.610;2022-12-24T13:33:50;18.83;;;11.35;;
58752;SDS011;44525;46.052;13.610;2022-12-24T13:36:17;18.33;;;10.13;;
58752;SDS011;44525;46.052;13.610;2022-12-24T13:49:26;27.85;;;16.42;;
58752;SDS011;44525;46.052;13.610;2022-12-24T13:52:04;36.85;;;20.50;;
58752;SDS011;44525;46.052;13.610;2022-12-24T13:54:29;31.60;;;18.00;;
58752;SDS011;44525;46.052;13.610;2022-12-24T13:56:55;36.88;;;19.90;;
58752;SDS011;44525;46.052;13.610;2022-12-24T13:59:25;29.50;;;15.98;;
58752;SDS011;44525;46.052;13.610;2022-12-24T14:01:58;24.95;;;14.57;;
58752;SDS011;44525;46.052;13.610;2022-12-24T14:04:28;28.05;;;14.45;;
58752;SDS011;44525;46.052;13.610;2022-12-24T14:06:58;22.33;;;13.47;;
58752;SDS011;44525;46.052;13.610;2022-12-24T14:09:26;16.73;;;9.38;;
58752;SDS011;44525;46.052;13.610;2022-12-24T14:17:20;25.20;;;15.82;;
58752;SDS011;44525;46.052;13.610;2022-12-24T14:19:51;21.33;;;13.05;;
58752;SDS011;44525;46.052;13.610;2022-12-24T14:27:59;23.17;;;15.50;;
58752;SDS011;44525;46.052;13.610;2022-12-24T14:30:29;24.30;;;14.77;;
58752;SDS011;44525;46.052;13.610;2022-12-24T14:32:55;20.00;;;13.57;;
58752;SDS011;44525;46.052;13.610;2022-12-24T14:37:56;57.60;;;27.50;;
58752;SDS011;44525;46.052;13.610;2022-12-24T14:40:25;45.58;;;25.92;;
58752;SDS011;44525;46.052;13.610;2022-12-24T14:45:46;18.38;;;11.80;;
58752;SDS011;44525;46.052;13.610;2022-12-24T14:48:34;19.20;;;10.98;;
58752;SDS011;44525;46.052;13.610;2022-12-24T14:56:34;24.70;;;15.85;;
58752;SDS011;44525;46.052;13.610;2022-12-24T14:59:01;30.30;;;17.73;;
58752;SDS011;44525;46.052;13.610;2022-12-24T15:01:38;38.47;;;24.98;;
58752;SDS011;44525;46.052;13.610;2022-12-24T15:06:40;31.75;;;22.15;;
58752;SDS011;44525;46.052;13.610;2022-12-24T15:09:23;30.42;;;17.65;;
58752;SDS011;44525;46.052;13.610;2022-12-24T15:11:52;29.50;;;17.02;;
58752;SDS011;44525;46.052;13.610;2022-12-24T15:14:20;24.75;;;15.93;;
58752;SDS011;44525;46.052;13.610;2022-12-24T15:16:52;26.52;;;15.90;;
58752;SDS011;44525;46.052;13.610;2022-12-24T15:19:21;25.63;;;15.30;;
58752;SDS011;44525;46.052;13.610;2022-12-24T15:21:51;26.80;;;16.13;;
58752;SDS011;44525;46.052;13.610;2022-12-24T15:24:34;31.15;;;18.92;;
58752;SDS011;44525;46.052;13.610;2022-12-24T15:27:26;31.20;;;17.77;;
58752;SDS011;44525;46.052;13.610;2022-12-24T15:29:56;30.58;;;16.98;;
58752;SDS011;44525;46.052;13.610;2022-12-24T15:32:22;28.92;;;16.48;;
58752;SDS011;44525;46.052;13.610;2022-12-24T15:34:49;29.25;;;16.48;;
58752;SDS011;44525;46.052;13.610;2022-12-24T15:37:23;26.73;;;13.73;;
58752;SDS011;44525;46.052;13.610;2022-12-24T15:40:03;32.33;;;20.70;;
58752;SDS011;44525;46.052;13.610;2022-12-24T15:42:46;35.97;;;21.10;;
58752;SDS011;44525;46.052;13.610;2022-12-24T15:45:13;29.33;;;16.77;;
58752;SDS011;44525;46.052;13.610;2022-12-24T15:47:47;29.48;;;19.23;;
58752;SDS011;44525;46.052;13.610;2022-12-24T15:50:14;36.55;;;21.45;;
58752;SDS011;44525;46.052;13.610;2022-12-24T15:52:43;25.95;;;16.88;;
58752;SDS011;44525;46.052;13.610;2022-12-24T15:57:57;27.73;;;17.75;;
58752;SDS011;44525;46.052;13.610;2022-12-24T16:00:24;26.30;;;17.33;;
58752;SDS011;44525;46.052;13.610;2022-12-24T16:02:55;29.35;;;18.90;;
58752;SDS011;44525;46.052;13.610;2022-12-24T16:05:35;29.50;;;18.38;;
58752;SDS011;44525;46.052;13.610;2022-12-24T16:08:01;39.90;;;24.73;;
58752;SDS011;44525;46.052;13.610;2022-12-24T16:10:44;42.17;;;25.52;;
58752;SDS011;44525;46.052;13.610;2022-12-24T16:13:16;43.65;;;23.30;;
58752;SDS011;44525;46.052;13.610;2022-12-24T16:15:50;46.90;;;26.60;;
58752;SDS011;44525;46.052;13.610;2022-12-24T16:18:21;44.05;;;25.13;;
58752;SDS011;44525;46.052;13.610;2022-12-24T16:20:53;43.63;;;23.47;;
58752;SDS011;44525;46.052;13.610;2022-12-24T16:23:20;38.05;;;21.63;;
58752;SDS011;44525;46.052;13.610;2022-12-24T16:25:48;47.00;;;24.25;;